createdAt,value
2022-12-20T00:00:51.780Z,28.35
2022-12-20T00:03:20.228Z,31.60
2022-12-20T00:05:47.332Z,29.67
2022-12-20T00:08:14.621Z,27.42
2022-12-20T00:10:43.039Z,28.35
2022-12-20T00:13:10.179Z,27.55
2022-12-20T00:15:37.300Z,28.23
2022-12-20T00:18:04.560Z,27.55
2022-12-20T00:20:31.300Z,26.90
2022-12-20T00:22:58.343Z,30.33
2022-12-20T00:25:25.136Z,25.67
2022-12-20T00:27:52.299Z,30.10
2022-12-20T00:30:19.326Z,29.33
2022-12-20T00:32:46.434Z,27.52
2022-12-20T00:35:13.260Z,29.75
2022-12-20T00:37:40.336Z,28.48
2022-12-20T00:40:07.657Z,28.67
2022-12-20T00:42:34.688Z,27.58
2022-12-20T00:45:01.449Z,27.40
2022-12-20T00:47:28.503Z,27.17
2022-12-20T00:49:55.211Z,27.52
2022-12-20T00:52:22.395Z,26.40
2022-12-20T00:54:49.145Z,29.95
2022-12-20T00:57:16.148Z,28.92
2022-12-20T00:59:42.873Z,30.58
2022-12-20T01:02:10.115Z,27.55
2022-12-20T01:04:37.055Z,28.35
2022-12-20T01:07:04.342Z,30.92
2022-12-20T01:09:31.683Z,26.85
2022-12-20T01:11:58.680Z,26.92
2022-12-20T01:14:25.391Z,27.63
2022-12-20T01:16:52.519Z,26.08
2022-12-20T01:19:19.447Z,27.30
2022-12-20T01:21:46.831Z,24.92
2022-12-20T01:24:14.584Z,25.08
2022-12-20T01:26:41.772Z,24.30
2022-12-20T01:29:08.666Z,28.17
2022-12-20T01:31:35.812Z,25.42
2022-12-20T01:34:03.498Z,29.27
2022-12-20T01:36:32.053Z,28.45
2022-12-20T01:39:00.263Z,31.13
2022-12-20T01:41:27.888Z,26.63
2022-12-20T01:43:59.987Z,30.45
2022-12-20T01:46:28.901Z,23.75
2022-12-20T01:49:32.745Z,28.55
2022-12-20T01:51:59.749Z,25.17
2022-12-20T01:54:32.587Z,25.75
2022-12-20T01:57:05.157Z,24.38
2022-12-20T01:59:31.927Z,26.50
2022-12-20T02:01:59.371Z,25.60
2022-12-20T02:04:26.476Z,25.98
2022-12-20T02:06:53.538Z,26.42
2022-12-20T02:09:20.256Z,25.98
2022-12-20T02:12:17.806Z,27.45
2022-12-20T02:15:12.132Z,27.55
2022-12-20T02:17:51.373Z,26.38
2022-12-20T02:20:30.334Z,27.27
2022-12-20T02:23:19.396Z,26.35
2022-12-20T02:26:10.758Z,29.65
2022-12-20T02:28:55.167Z,26.65
2022-12-20T02:31:26.373Z,27.08
2022-12-20T02:33:53.729Z,26.40
2022-12-20T02:36:20.449Z,27.80
2022-12-20T02:38:47.464Z,26.92
2022-12-20T02:41:14.187Z,27.90
2022-12-20T02:44:01.297Z,28.05
2022-12-20T02:46:28.114Z,28.15
2022-12-20T02:49:00.114Z,30.63
2022-12-20T02:51:27.344Z,29.77
2022-12-20T02:53:54.400Z,28.98
2022-12-20T02:56:34.677Z,28.70
2022-12-20T02:59:23.493Z,27.67
2022-12-20T03:01:54.871Z,26.75
2022-12-20T03:04:27.025Z,27.40
2022-12-20T03:06:59.702Z,32.17
2022-12-20T03:09:27.049Z,33.35
2022-12-20T03:11:54.211Z,24.75
2022-12-20T03:14:21.533Z,27.05
2022-12-20T03:16:48.481Z,27.95
2022-12-20T03:19:15.681Z,27.90
2022-12-20T03:21:42.673Z,33.50
2022-12-20T03:24:11.178Z,25.92
2022-12-20T03:26:37.932Z,28.92
2022-12-20T03:29:05.041Z,28.63
2022-12-20T03:31:31.815Z,29.23
2022-12-20T03:33:58.877Z,30.13
2022-12-20T03:36:25.648Z,30.02
2022-12-20T03:38:53.306Z,27.27
2022-12-20T03:41:21.322Z,33.13
2022-12-20T03:43:48.976Z,28.60
2022-12-20T03:46:16.170Z,28.33
2022-12-20T03:48:43.596Z,29.88
2022-12-20T03:51:10.556Z,29.90
2022-12-20T03:53:37.622Z,31.83
2022-12-20T03:56:04.541Z,29.98
2022-12-20T03:58:31.585Z,35.33
2022-12-20T04:00:59.154Z,31.00
2022-12-20T04:03:26.329Z,28.50
2022-12-20T04:05:53.145Z,28.58
2022-12-20T04:08:20.230Z,30.17
2022-12-20T04:11:05.650Z,33.92
2022-12-20T04:16:00.955Z,33.33
2022-12-20T04:18:28.447Z,34.40
2022-12-20T04:20:55.449Z,33.22
2022-12-20T04:23:22.617Z,34.17
2022-12-20T04:25:49.349Z,32.38
2022-12-20T04:28:16.459Z,37.15
2022-12-20T04:30:43.225Z,32.95
2022-12-20T04:33:10.266Z,32.85
2022-12-20T04:35:37.708Z,31.40
2022-12-20T04:38:04.771Z,33.00
2022-12-20T04:40:31.551Z,32.80
2022-12-20T04:42:58.619Z,34.20
2022-12-20T04:45:25.377Z,34.70
2022-12-20T04:47:52.459Z,31.98
2022-12-20T04:50:19.294Z,33.58
2022-12-20T04:53:04.992Z,33.60
2022-12-20T04:55:32.089Z,31.92
2022-12-20T04:58:03.757Z,36.50
2022-12-20T05:00:34.341Z,38.85
2022-12-20T05:03:01.598Z,32.42
2022-12-20T05:05:28.494Z,31.65
2022-12-20T05:07:55.709Z,37.80
2022-12-20T05:10:22.523Z,34.75
2022-12-20T05:12:49.567Z,31.55
2022-12-20T05:15:16.433Z,35.63
2022-12-20T05:17:43.573Z,35.35
2022-12-20T05:20:10.899Z,30.58
2022-12-20T05:22:56.498Z,33.03
2022-12-20T05:25:41.813Z,36.00
2022-12-20T05:28:08.857Z,31.42
2022-12-20T05:30:35.588Z,34.33
2022-12-20T05:33:02.671Z,33.90
2022-12-20T05:35:29.430Z,32.28
2022-12-20T05:37:56.692Z,35.22
2022-12-20T05:40:23.512Z,33.58
2022-12-20T05:42:50.595Z,33.70
2022-12-20T05:45:17.321Z,35.55
2022-12-20T05:47:44.806Z,33.97
2022-12-20T05:50:18.366Z,34.90
2022-12-20T05:52:46.134Z,36.40
2022-12-20T05:55:13.828Z,31.63
2022-12-20T05:57:40.892Z,32.97
2022-12-20T06:00:08.297Z,36.17
2022-12-20T06:02:35.488Z,37.17
2022-12-20T06:05:02.888Z,32.47
2022-12-20T06:07:30.060Z,37.28
2022-12-20T06:09:56.849Z,32.80
2022-12-20T06:12:24.040Z,34.20
2022-12-20T06:14:51.179Z,29.77
2022-12-20T06:17:18.761Z,37.38
2022-12-20T06:19:45.699Z,35.97
2022-12-20T06:22:13.456Z,39.42
2022-12-20T06:24:45.984Z,55.50
2022-12-20T06:27:15.225Z,45.22
2022-12-20T06:29:42.003Z,46.58
2022-12-20T06:32:09.069Z,44.42
2022-12-20T06:34:35.895Z,47.55
2022-12-20T06:37:02.976Z,56.58
2022-12-20T06:39:29.711Z,50.67
2022-12-20T06:41:56.781Z,48.88
2022-12-20T06:44:23.545Z,53.67
2022-12-20T06:46:50.615Z,55.60
2022-12-20T06:49:17.377Z,54.15
2022-12-20T06:51:44.549Z,49.13
2022-12-20T06:54:11.289Z,50.97
2022-12-20T06:56:41.507Z,50.00
2022-12-20T06:59:08.614Z,48.78
2022-12-20T07:01:35.754Z,47.67
2022-12-20T07:04:02.660Z,46.13
2022-12-20T07:06:29.675Z,39.70
2022-12-20T07:08:56.474Z,47.72
2022-12-20T07:11:23.561Z,49.03
2022-12-20T07:13:56.255Z,42.63
2022-12-20T07:16:23.700Z,43.85
2022-12-20T07:18:52.581Z,44.75
2022-12-20T07:21:19.935Z,42.33
2022-12-20T07:23:47.669Z,40.72
2022-12-20T07:26:14.931Z,41.42
2022-12-20T07:28:42.250Z,39.70
2022-12-20T07:31:09.354Z,39.42
2022-12-20T07:33:37.320Z,37.50
2022-12-20T07:36:09.803Z,36.05
2022-12-20T07:38:37.039Z,35.05
2022-12-20T07:41:08.625Z,36.88
2022-12-20T07:43:35.523Z,37.47
2022-12-20T07:46:03.630Z,42.92
2022-12-20T07:48:30.430Z,44.53
2022-12-20T07:51:07.674Z,39.92
2022-12-20T07:53:35.133Z,40.35
2022-12-20T07:56:02.186Z,39.10
2022-12-20T07:58:29.210Z,34.65
2022-12-20T08:00:56.703Z,38.40
2022-12-20T08:03:26.265Z,40.28
2022-12-20T08:05:54.712Z,38.88
2022-12-20T08:08:22.188Z,39.60
2022-12-20T08:10:49.318Z,35.22
2022-12-20T08:13:16.134Z,39.40
2022-12-20T08:15:43.359Z,36.83
2022-12-20T08:18:10.097Z,40.58
2022-12-20T08:20:37.206Z,37.72
2022-12-20T08:23:04.547Z,35.90
2022-12-20T08:25:36.003Z,41.00
2022-12-20T08:28:08.033Z,39.42
2022-12-20T08:30:35.172Z,36.42
2022-12-20T08:33:01.927Z,37.33
2022-12-20T08:35:29.085Z,40.10
2022-12-20T08:37:56.884Z,37.47
2022-12-20T08:40:24.037Z,36.70
2022-12-20T08:42:50.800Z,34.20
2022-12-20T08:45:19.297Z,34.63
2022-12-20T08:47:46.060Z,35.40
2022-12-20T08:50:13.734Z,36.90
2022-12-20T08:52:40.567Z,41.13
2022-12-20T08:55:08.022Z,33.13
2022-12-20T08:57:35.317Z,33.20
2022-12-20T09:00:03.065Z,32.38
2022-12-20T09:02:29.990Z,30.98
2022-12-20T09:04:57.247Z,35.17
2022-12-20T09:07:23.983Z,34.47
2022-12-20T09:09:51.027Z,34.72
2022-12-20T09:12:17.787Z,31.02
2022-12-20T09:14:45.213Z,31.08
2022-12-20T09:17:12.478Z,31.00
2022-12-20T09:19:39.619Z,31.83
2022-12-20T09:22:06.390Z,29.70
2022-12-20T09:24:33.461Z,29.85
2022-12-20T09:27:00.248Z,31.50
2022-12-20T09:29:32.158Z,32.17
2022-12-20T09:32:02.179Z,29.67
2022-12-20T09:34:29.251Z,29.92
2022-12-20T09:36:56.027Z,31.35
2022-12-20T09:39:23.119Z,32.88
2022-12-20T09:41:49.901Z,30.85
2022-12-20T09:44:20.296Z,36.80
2022-12-20T09:46:53.995Z,36.88
2022-12-20T09:49:21.495Z,34.85
2022-12-20T09:52:07.022Z,34.03
2022-12-20T09:54:44.341Z,33.05
2022-12-20T09:57:45.405Z,40.08
2022-12-20T10:00:17.274Z,34.75
2022-12-20T10:02:58.729Z,31.92
2022-12-20T10:05:46.674Z,32.53
2022-12-20T10:08:25.745Z,31.58
2022-12-20T10:11:13.413Z,35.20
2022-12-20T10:13:55.583Z,34.58
2022-12-20T10:16:48.513Z,32.92
2022-12-20T10:19:54.442Z,32.25
2022-12-20T10:22:25.371Z,31.42
2022-12-20T10:25:07.514Z,33.38
2022-12-20T10:27:37.981Z,30.33
2022-12-20T10:30:18.340Z,31.05
2022-12-20T10:32:47.501Z,32.78
2022-12-20T10:35:31.420Z,35.58
2022-12-20T10:38:09.715Z,34.95
2022-12-20T10:43:54.965Z,30.85
2022-12-20T10:46:21.839Z,33.00
2022-12-20T10:48:49.461Z,32.58
2022-12-20T10:51:18.710Z,29.77
2022-12-20T10:53:55.010Z,31.40
2022-12-20T10:56:29.185Z,37.80
2022-12-20T10:59:04.229Z,32.97
2022-12-20T11:01:32.659Z,34.58
2022-12-20T11:04:05.474Z,33.10
2022-12-20T11:06:38.411Z,32.03
2022-12-20T11:09:14.657Z,35.88
2022-12-20T11:11:44.018Z,31.98
2022-12-20T11:14:15.227Z,32.35
2022-12-20T11:16:42.006Z,32.97
2022-12-20T11:19:38.201Z,30.23
2022-12-20T11:22:21.022Z,35.13
2022-12-20T11:25:03.242Z,34.50
2022-12-20T11:27:56.536Z,30.50
2022-12-20T11:30:25.076Z,29.50
2022-12-20T11:33:38.407Z,30.65
2022-12-20T11:36:17.526Z,32.63
2022-12-20T11:39:04.311Z,31.45
2022-12-20T11:41:49.169Z,32.17
2022-12-20T11:44:31.038Z,37.28
2022-12-20T11:47:17.112Z,33.55
2022-12-20T11:52:41.508Z,34.92
2022-12-20T11:55:08.258Z,34.85
2022-12-20T11:58:08.775Z,29.05
2022-12-20T12:00:26.444Z,34.63
2022-12-20T12:02:58.768Z,37.70
2022-12-20T12:05:36.705Z,30.02
2022-12-20T12:08:05.825Z,34.60
2022-12-20T12:10:36.119Z,35.70
2022-12-20T12:13:17.712Z,36.25
2022-12-20T12:16:03.491Z,33.35
2022-12-20T12:18:31.615Z,29.83
2022-12-20T12:21:21.144Z,33.58
2022-12-20T12:24:00.330Z,30.83
2022-12-20T12:26:30.906Z,33.70
2022-12-20T12:28:59.632Z,34.15
2022-12-20T12:31:29.267Z,31.90
2022-12-20T12:34:03.361Z,34.42
2022-12-20T12:36:42.282Z,36.28
2022-12-20T12:39:46.310Z,36.95
2022-12-20T12:42:45.832Z,36.95
2022-12-20T12:45:37.840Z,35.13
2022-12-20T12:48:14.278Z,36.40
2022-12-20T12:50:59.570Z,35.25
2022-12-20T12:53:30.066Z,36.13
2022-12-20T12:56:12.750Z,39.90
2022-12-20T12:58:48.720Z,37.08
2022-12-20T13:01:46.126Z,32.72
2022-12-20T13:04:21.931Z,32.10
2022-12-20T13:06:48.982Z,35.25
2022-12-20T13:09:22.455Z,35.20
2022-12-20T13:11:57.411Z,40.85
2022-12-20T13:14:27.690Z,38.88
2022-12-20T13:17:18.292Z,33.38
2022-12-20T13:19:54.286Z,36.17
2022-12-20T13:22:25.091Z,36.53
2022-12-20T13:24:56.456Z,33.95
2022-12-20T13:27:39.373Z,36.83
2022-12-20T13:30:12.426Z,38.63
2022-12-20T13:32:48.536Z,35.17
2022-12-20T13:35:24.683Z,37.22
2022-12-20T13:38:06.658Z,38.83
2022-12-20T13:40:48.129Z,40.45
2022-12-20T13:43:21.906Z,38.00
2022-12-20T13:45:51.281Z,39.33
2022-12-20T13:48:20.184Z,36.17
2022-12-20T13:50:52.366Z,38.17
2022-12-20T13:53:20.785Z,35.08
2022-12-20T13:55:48.852Z,39.33
2022-12-20T13:58:27.386Z,35.67
2022-12-20T14:00:54.550Z,33.63
2022-12-20T14:03:28.156Z,37.67
2022-12-20T14:06:02.451Z,41.70
2022-12-20T14:08:32.220Z,36.80
2022-12-20T14:11:18.726Z,35.63
2022-12-20T14:13:53.710Z,38.42
2022-12-20T14:16:20.824Z,37.92
2022-12-20T14:19:00.026Z,38.45
2022-12-20T14:21:26.817Z,34.22
2022-12-20T14:23:55.594Z,38.03
2022-12-20T14:26:27.564Z,32.47
2022-12-20T14:28:58.703Z,37.97
2022-12-20T14:31:34.578Z,35.33
2022-12-20T14:34:03.354Z,36.30
2022-12-20T14:36:31.756Z,36.28
2022-12-20T14:38:58.881Z,41.42
2022-12-20T14:41:43.815Z,38.08
2022-12-20T14:44:17.192Z,40.15
2022-12-20T14:46:49.258Z,40.70
2022-12-20T14:49:36.489Z,40.03
2022-12-20T14:52:12.210Z,38.03
2022-12-20T14:55:08.913Z,36.78
2022-12-20T14:57:36.552Z,35.38
2022-12-20T15:00:18.872Z,40.10
2022-12-20T15:02:46.067Z,38.28
2022-12-20T15:05:35.316Z,36.20
2022-12-20T15:08:12.131Z,36.78
2022-12-20T15:10:42.191Z,42.85
2022-12-20T15:13:14.127Z,41.88
2022-12-20T15:15:41.261Z,36.17
2022-12-20T15:18:15.279Z,37.85
2022-12-20T15:20:42.814Z,36.78
2022-12-20T15:23:14.627Z,44.15
2022-12-20T15:25:44.920Z,39.00
2022-12-20T15:28:14.184Z,38.90
2022-12-20T15:30:41.447Z,36.95
2022-12-20T15:33:11.890Z,39.45
2022-12-20T15:35:38.967Z,40.20
2022-12-20T15:38:05.826Z,39.53
2022-12-20T15:40:32.913Z,36.17
2022-12-20T15:42:59.717Z,38.13
2022-12-20T15:45:26.852Z,38.75
2022-12-20T15:47:54.798Z,38.10
2022-12-20T15:50:22.100Z,40.13
2022-12-20T15:52:48.917Z,42.63
2022-12-20T15:55:16.078Z,43.85
2022-12-20T15:57:42.980Z,41.63
2022-12-20T16:00:12.246Z,42.33
2022-12-20T16:02:39.261Z,46.22
2022-12-20T16:05:06.835Z,52.03
2022-12-20T16:07:33.579Z,44.20
2022-12-20T16:10:00.821Z,47.25
2022-12-20T16:12:30.366Z,50.47
2022-12-20T16:14:57.542Z,46.28
2022-12-20T16:17:24.322Z,45.58
2022-12-20T16:19:51.367Z,46.97
2022-12-20T16:22:20.421Z,44.65
2022-12-20T16:24:47.755Z,42.83
2022-12-20T16:27:14.561Z,43.97
2022-12-20T16:29:41.840Z,48.38
2022-12-20T16:32:15.737Z,47.72
2022-12-20T16:34:43.067Z,52.25
2022-12-20T16:37:11.402Z,55.38
2022-12-20T16:39:38.460Z,68.65
2022-12-20T16:42:13.037Z,83.68
2022-12-20T16:44:42.858Z,81.88
2022-12-20T16:47:09.975Z,92.53
2022-12-20T16:49:37.215Z,99.55
2022-12-20T16:52:05.487Z,97.20
2022-12-20T16:54:32.548Z,106.60
2022-12-20T16:56:59.395Z,101.20
2022-12-20T16:59:26.551Z,105.38
2022-12-20T17:01:55.272Z,106.75
2022-12-20T17:04:22.838Z,95.75
2022-12-20T17:06:49.818Z,96.65
2022-12-20T17:09:17.720Z,91.45
2022-12-20T17:11:45.188Z,80.00
2022-12-20T17:14:13.415Z,80.32
2022-12-20T17:16:41.038Z,77.97
2022-12-20T17:19:09.073Z,73.43
2022-12-20T17:24:27.499Z,70.05
2022-12-20T17:26:55.353Z,85.10
2022-12-20T17:29:22.470Z,96.22
2022-12-20T17:31:49.365Z,87.05
2022-12-20T17:34:20.084Z,119.25
2022-12-20T17:36:47.427Z,98.88
2022-12-20T17:39:14.548Z,100.25
2022-12-20T17:41:42.730Z,86.25
2022-12-20T17:44:23.831Z,84.05
2022-12-20T17:46:50.685Z,78.03
2022-12-20T17:49:17.918Z,88.15
2022-12-20T17:51:44.679Z,88.40
2022-12-20T17:54:19.465Z,88.53
2022-12-20T17:56:46.312Z,80.00
2022-12-20T17:59:13.768Z,73.28
2022-12-20T18:01:40.841Z,71.20
2022-12-20T18:04:09.464Z,65.65
2022-12-20T18:06:39.716Z,71.55
2022-12-20T18:09:10.633Z,71.97
2022-12-20T18:11:37.393Z,67.78
2022-12-20T18:14:04.469Z,66.88
2022-12-20T18:16:32.391Z,62.38
2022-12-20T18:18:59.494Z,72.07
2022-12-20T18:21:26.584Z,67.68
2022-12-20T18:23:53.960Z,66.95
2022-12-20T18:26:23.349Z,62.17
2022-12-20T18:28:51.506Z,67.15
2022-12-20T18:31:19.848Z,58.72
2022-12-20T18:33:51.081Z,61.30
2022-12-20T18:36:22.578Z,48.50
2022-12-20T18:38:49.976Z,59.28
2022-12-20T18:41:18.641Z,56.08
2022-12-20T18:43:45.819Z,59.92
2022-12-20T18:46:14.489Z,54.15
2022-12-20T18:48:41.798Z,52.58
2022-12-20T18:51:18.173Z,51.90
2022-12-20T18:53:47.026Z,46.92
2022-12-20T18:56:18.777Z,48.85
2022-12-20T18:58:47.163Z,50.75
2022-12-20T19:01:21.359Z,50.38
2022-12-20T19:03:50.267Z,51.55
2022-12-20T19:06:17.264Z,52.22
2022-12-20T19:08:44.421Z,46.20
2022-12-20T19:11:15.875Z,50.60
2022-12-20T19:13:43.167Z,51.78
2022-12-20T19:16:20.798Z,43.75
2022-12-20T19:18:48.153Z,43.72
2022-12-20T19:21:16.999Z,43.05
2022-12-20T19:23:44.999Z,47.20
2022-12-20T19:26:12.902Z,41.20
2022-12-20T19:28:40.427Z,41.15
2022-12-20T19:31:17.338Z,42.00
2022-12-20T19:33:48.319Z,37.58
2022-12-20T19:36:16.180Z,39.97
2022-12-20T19:38:53.275Z,39.42
2022-12-20T19:41:20.152Z,41.17
2022-12-20T19:43:47.529Z,39.00
2022-12-20T19:46:15.011Z,38.00
2022-12-20T19:48:42.111Z,40.42
2022-12-20T19:51:11.831Z,39.35
2022-12-20T19:53:39.459Z,40.78
2022-12-20T19:56:08.575Z,43.05
2022-12-20T19:58:36.437Z,41.22
2022-12-20T20:01:04.490Z,38.80
2022-12-20T20:03:32.604Z,42.72
2022-12-20T20:05:59.539Z,43.70
2022-12-20T20:08:26.702Z,40.00
2022-12-20T20:10:54.415Z,41.53
2022-12-20T20:13:21.592Z,41.20
2022-12-20T20:15:56.146Z,39.88
2022-12-20T20:18:23.439Z,41.63
2022-12-20T20:20:50.256Z,38.70
2022-12-20T20:23:17.319Z,40.50
2022-12-20T20:25:56.880Z,42.65
2022-12-20T20:28:31.303Z,44.00
2022-12-20T20:33:26.670Z,37.97
2022-12-20T20:35:58.199Z,40.83
2022-12-20T20:38:25.491Z,40.58
2022-12-20T20:40:52.388Z,36.70
2022-12-20T20:43:19.925Z,39.50
2022-12-20T20:45:46.856Z,39.40
2022-12-20T20:48:14.151Z,41.25
2022-12-20T20:50:41.464Z,36.60
2022-12-20T20:53:08.207Z,37.53
2022-12-20T20:55:35.611Z,42.72
2022-12-20T20:58:02.508Z,40.05
2022-12-20T21:00:31.898Z,37.03
2022-12-20T21:02:59.544Z,41.13
2022-12-20T21:08:15.533Z,43.15
2022-12-20T21:10:42.994Z,38.17
2022-12-20T21:13:09.875Z,40.58
2022-12-20T21:15:37.374Z,39.28
2022-12-20T21:18:04.271Z,37.25
2022-12-20T21:20:31.354Z,38.72
2022-12-20T21:22:58.350Z,43.65
2022-12-20T21:25:25.487Z,37.15
2022-12-20T21:27:52.282Z,40.08
2022-12-20T21:30:19.489Z,40.13
2022-12-20T21:32:46.266Z,41.97
2022-12-20T21:35:13.370Z,39.33
2022-12-20T21:37:40.125Z,38.20
2022-12-20T21:40:07.828Z,40.47
2022-12-20T21:42:34.878Z,41.42
2022-12-20T21:45:01.996Z,40.90
2022-12-20T21:47:28.792Z,42.08
2022-12-20T21:49:57.299Z,40.65
2022-12-20T21:52:24.094Z,38.53
2022-12-20T21:54:51.136Z,36.35
2022-12-20T21:57:17.895Z,39.80
2022-12-20T21:59:44.986Z,39.97
2022-12-20T22:02:11.958Z,43.92
2022-12-20T22:04:39.339Z,43.35
2022-12-20T22:07:06.068Z,43.03
2022-12-20T22:09:33.115Z,44.05
2022-12-20T22:11:59.856Z,40.70
2022-12-20T22:14:26.904Z,42.38
2022-12-20T22:16:55.316Z,41.97
2022-12-20T22:19:22.559Z,40.10
2022-12-20T22:21:55.639Z,42.28
2022-12-20T22:24:25.180Z,38.95
2022-12-20T22:26:51.966Z,39.53
2022-12-20T22:29:20.220Z,40.92
2022-12-20T22:31:47.154Z,39.60
2022-12-20T22:34:14.214Z,37.53
2022-12-20T22:36:40.991Z,41.25
2022-12-20T22:39:08.795Z,38.75
2022-12-20T22:41:35.798Z,39.90
2022-12-20T22:44:02.950Z,41.67
2022-12-20T22:49:17.820Z,38.70
2022-12-20T22:51:49.300Z,39.88
2022-12-20T22:54:26.424Z,36.25
2022-12-20T22:56:53.204Z,38.60
2022-12-20T22:59:20.463Z,39.50
2022-12-20T23:01:47.300Z,38.83
2022-12-20T23:04:14.503Z,39.67
2022-12-20T23:06:41.334Z,38.15
2022-12-20T23:09:08.374Z,38.70
2022-12-20T23:11:53.765Z,38.22
2022-12-20T23:14:40.694Z,38.08
2022-12-20T23:17:08.505Z,38.72
2022-12-20T23:19:54.172Z,35.25
2022-12-20T23:22:40.433Z,39.60
2022-12-20T23:25:15.537Z,37.38
2022-12-20T23:27:42.959Z,36.35
2022-12-20T23:30:12.471Z,35.25
2022-12-20T23:32:39.213Z,33.47
2022-12-20T23:35:12.262Z,34.95
2022-12-20T23:37:39.612Z,32.88
2022-12-20T23:40:09.707Z,34.72
2022-12-20T23:42:36.425Z,34.47
2022-12-20T23:45:03.691Z,34.53
2022-12-20T23:47:31.375Z,31.48
2022-12-20T23:49:58.426Z,30.98
2022-12-20T23:52:25.169Z,32.08
2022-12-20T23:54:52.283Z,28.33
2022-12-20T23:57:19.034Z,34.88
2022-12-20T23:59:46.056Z,28.38
